Park Valley, Utah
Current Conditions -  °F | °C
As of 7:53 PM on Tuesday 25 Nov 2014 (Local Time) from KBYI Reporting Station
Overcast Overcast  
Wind Chill: 10°   Ceiling: 4500
Heat Index: 10°   Visibility: 10mi
Dew Point:   Wind: 15mph
Humidity: 61%   Direction: 260°W
Pressure: 30.23"   Gusts: 23mph
Location:  41.82°N, 113.33°W
Report Text: KBYI 260253Z AUTO 26013G20KT 10SM OVC045 10/03 A3023 RMK AO2 PK WND 26032/0223 RAB03E11 SLP231 P0000 60000 T01000028 53008
Loading
Personal Weather Stations






























Interactive Weather Map New forecast layout! Learn more

10-Day Weather Forecast

Advertisements
Track Severe Weather on mobile